sensor_id;sensor_type;location;lat;lon;timestamp;P1;durP1;ratioP1;P2;durP2;ratioP2
28335;SDS011;15592;53.656;7.276;2022-11-15T00:01:41;59.72;;;33.67;;
28335;SDS011;15592;53.656;7.276;2022-11-15T00:04:06;58.30;;;33.13;;
28335;SDS011;15592;53.656;7.276;2022-11-15T00:06:32;58.38;;;34.13;;
28335;SDS011;15592;53.656;7.276;2022-11-15T00:08:58;56.70;;;33.38;;
28335;SDS011;15592;53.656;7.276;2022-11-15T00:11:24;58.00;;;33.72;;
28335;SDS011;15592;53.656;7.276;2022-11-15T00:13:50;52.88;;;32.00;;
28335;SDS011;15592;53.656;7.276;2022-11-15T00:16:16;56.63;;;33.50;;
28335;SDS011;15592;53.656;7.276;2022-11-15T00:18:42;57.60;;;33.15;;
28335;SDS011;15592;53.656;7.276;2022-11-15T00:21:09;56.78;;;32.20;;
28335;SDS011;15592;53.656;7.276;2022-11-15T00:23:36;56.08;;;32.58;;
28335;SDS011;15592;53.656;7.276;2022-11-15T00:26:02;56.58;;;33.65;;
28335;SDS011;15592;53.656;7.276;2022-11-15T00:28:28;50.88;;;29.35;;
28335;SDS011;15592;53.656;7.276;2022-11-15T00:30:59;52.08;;;30.30;;
28335;SDS011;15592;53.656;7.276;2022-11-15T00:33:26;51.22;;;30.52;;
28335;SDS011;15592;53.656;7.276;2022-11-15T00:35:52;53.45;;;31.58;;
28335;SDS011;15592;53.656;7.276;2022-11-15T00:38:17;52.97;;;31.33;;
28335;SDS011;15592;53.656;7.276;2022-11-15T00:40:43;53.40;;;32.00;;
28335;SDS011;15592;53.656;7.276;2022-11-15T00:43:09;54.47;;;30.10;;
28335;SDS011;15592;53.656;7.276;2022-11-15T00:45:34;50.63;;;30.45;;
28335;SDS011;15592;53.656;7.276;2022-11-15T00:48:00;52.33;;;29.88;;
28335;SDS011;15592;53.656;7.276;2022-11-15T00:50:25;54.33;;;30.13;;
28335;SDS011;15592;53.656;7.276;2022-11-15T00:52:51;49.00;;;29.40;;
28335;SDS011;15592;53.656;7.276;2022-11-15T00:55:17;49.50;;;29.00;;
28335;SDS011;15592;53.656;7.276;2022-11-15T00:57:44;51.17;;;29.65;;
28335;SDS011;15592;53.656;7.276;2022-11-15T01:00:10;47.83;;;29.45;;
28335;SDS011;15592;53.656;7.276;2022-11-15T01:02:37;50.85;;;29.17;;
28335;SDS011;15592;53.656;7.276;2022-11-15T01:05:03;49.40;;;29.00;;
28335;SDS011;15592;53.656;7.276;2022-11-15T01:07:29;49.35;;;30.00;;
28335;SDS011;15592;53.656;7.276;2022-11-15T01:09:54;53.97;;;30.48;;
28335;SDS011;15592;53.656;7.276;2022-11-15T01:12:20;53.10;;;30.70;;
28335;SDS011;15592;53.656;7.276;2022-11-15T01:14:45;50.15;;;29.45;;
28335;SDS011;15592;53.656;7.276;2022-11-15T01:17:11;53.80;;;30.63;;
28335;SDS011;15592;53.656;7.276;2022-11-15T01:19:37;50.42;;;30.92;;
28335;SDS011;15592;53.656;7.276;2022-11-15T01:22:02;50.40;;;28.63;;
28335;SDS011;15592;53.656;7.276;2022-11-15T01:24:28;43.72;;;26.73;;
28335;SDS011;15592;53.656;7.276;2022-11-15T01:26:53;44.20;;;26.58;;
28335;SDS011;15592;53.656;7.276;2022-11-15T01:29:19;43.10;;;25.38;;
28335;SDS011;15592;53.656;7.276;2022-11-15T01:31:44;39.58;;;24.48;;
28335;SDS011;15592;53.656;7.276;2022-11-15T01:34:10;40.08;;;24.65;;
28335;SDS011;15592;53.656;7.276;2022-11-15T01:36:36;40.70;;;24.77;;
28335;SDS011;15592;53.656;7.276;2022-11-15T01:39:02;44.70;;;25.05;;
28335;SDS011;15592;53.656;7.276;2022-11-15T01:41:29;43.65;;;26.30;;
28335;SDS011;15592;53.656;7.276;2022-11-15T01:43:58;40.95;;;25.52;;
28335;SDS011;15592;53.656;7.276;2022-11-15T01:47:02;42.45;;;25.08;;
28335;SDS011;15592;53.656;7.276;2022-11-15T01:49:32;42.88;;;25.90;;
28335;SDS011;15592;53.656;7.276;2022-11-15T01:52:00;40.10;;;24.92;;
28335;SDS011;15592;53.656;7.276;2022-11-15T01:54:27;39.60;;;23.90;;
28335;SDS011;15592;53.656;7.276;2022-11-15T01:56:55;39.92;;;23.10;;
28335;SDS011;15592;53.656;7.276;2022-11-15T01:59:22;37.53;;;22.40;;
28335;SDS011;15592;53.656;7.276;2022-11-15T02:01:48;40.17;;;24.17;;
28335;SDS011;15592;53.656;7.276;2022-11-15T02:04:22;42.22;;;23.88;;
28335;SDS011;15592;53.656;7.276;2022-11-15T02:06:52;40.97;;;23.60;;
28335;SDS011;15592;53.656;7.276;2022-11-15T02:09:18;35.63;;;23.25;;
28335;SDS011;15592;53.656;7.276;2022-11-15T02:11:44;42.35;;;25.17;;
28335;SDS011;15592;53.656;7.276;2022-11-15T02:14:11;44.78;;;25.60;;
28335;SDS011;15592;53.656;7.276;2022-11-15T02:24:45;41.40;;;25.00;;
28335;SDS011;15592;53.656;7.276;2022-11-15T02:31:13;39.85;;;23.77;;
28335;SDS011;15592;53.656;7.276;2022-11-15T02:33:50;40.47;;;24.02;;
28335;SDS011;15592;53.656;7.276;2022-11-15T02:36:20;37.90;;;23.17;;
28335;SDS011;15592;53.656;7.276;2022-11-15T02:41:54;40.38;;;24.35;;
28335;SDS011;15592;53.656;7.276;2022-11-15T02:44:59;40.17;;;23.20;;
28335;SDS011;15592;53.656;7.276;2022-11-15T02:47:29;40.63;;;22.85;;
28335;SDS011;15592;53.656;7.276;2022-11-15T02:50:10;37.70;;;21.90;;
28335;SDS011;15592;53.656;7.276;2022-11-15T02:52:38;36.25;;;21.30;;
28335;SDS011;15592;53.656;7.276;2022-11-15T02:55:04;38.83;;;23.15;;
28335;SDS011;15592;53.656;7.276;2022-11-15T03:00:11;39.72;;;24.23;;
28335;SDS011;15592;53.656;7.276;2022-11-15T03:08:19;44.35;;;25.88;;
28335;SDS011;15592;53.656;7.276;2022-11-15T03:11:08;49.25;;;27.75;;
28335;SDS011;15592;53.656;7.276;2022-11-15T03:18:43;45.50;;;26.35;;
28335;SDS011;15592;53.656;7.276;2022-11-15T03:21:14;41.92;;;26.08;;
28335;SDS011;15592;53.656;7.276;2022-11-15T03:23:43;43.13;;;24.90;;
28335;SDS011;15592;53.656;7.276;2022-11-15T03:26:11;40.60;;;23.52;;
28335;SDS011;15592;53.656;7.276;2022-11-15T03:28:42;36.92;;;22.90;;
28335;SDS011;15592;53.656;7.276;2022-11-15T03:31:14;39.13;;;22.67;;
28335;SDS011;15592;53.656;7.276;2022-11-15T03:34:02;38.30;;;23.15;;
28335;SDS011;15592;53.656;7.276;2022-11-15T03:36:31;37.35;;;21.73;;
28335;SDS011;15592;53.656;7.276;2022-11-15T03:39:00;34.70;;;21.67;;
28335;SDS011;15592;53.656;7.276;2022-11-15T03:46:38;40.05;;;24.80;;
28335;SDS011;15592;53.656;7.276;2022-11-15T03:49:27;44.03;;;26.65;;
28335;SDS011;15592;53.656;7.276;2022-11-15T03:51:57;43.03;;;26.65;;
28335;SDS011;15592;53.656;7.276;2022-11-15T03:54:24;46.67;;;28.02;;
28335;SDS011;15592;53.656;7.276;2022-11-15T03:56:49;48.05;;;28.45;;
28335;SDS011;15592;53.656;7.276;2022-11-15T03:59:15;44.97;;;27.63;;
28335;SDS011;15592;53.656;7.276;2022-11-15T04:01:41;46.33;;;27.23;;
28335;SDS011;15592;53.656;7.276;2022-11-15T04:04:06;43.95;;;25.63;;
28335;SDS011;15592;53.656;7.276;2022-11-15T04:06:32;44.22;;;25.77;;
28335;SDS011;15592;53.656;7.276;2022-11-15T04:08:57;45.10;;;26.48;;
28335;SDS011;15592;53.656;7.276;2022-11-15T04:11:23;45.28;;;26.10;;
28335;SDS011;15592;53.656;7.276;2022-11-15T04:13:49;44.22;;;26.23;;
28335;SDS011;15592;53.656;7.276;2022-11-15T04:16:14;41.95;;;26.08;;
28335;SDS011;15592;53.656;7.276;2022-11-15T04:18:40;40.33;;;24.52;;
28335;SDS011;15592;53.656;7.276;2022-11-15T04:21:06;45.05;;;26.75;;
28335;SDS011;15592;53.656;7.276;2022-11-15T04:23:52;48.47;;;27.77;;
28335;SDS011;15592;53.656;7.276;2022-11-15T04:26:29;48.00;;;28.65;;
28335;SDS011;15592;53.656;7.276;2022-11-15T04:28:55;48.17;;;27.20;;
28335;SDS011;15592;53.656;7.276;2022-11-15T04:31:58;45.35;;;26.30;;
28335;SDS011;15592;53.656;7.276;2022-11-15T04:34:24;47.92;;;27.10;;
28335;SDS011;15592;53.656;7.276;2022-11-15T04:36:50;44.15;;;25.90;;
28335;SDS011;15592;53.656;7.276;2022-11-15T04:39:34;46.95;;;26.48;;
28335;SDS011;15592;53.656;7.276;2022-11-15T04:42:00;52.70;;;30.17;;
28335;SDS011;15592;53.656;7.276;2022-11-15T04:44:25;50.15;;;29.15;;
28335;SDS011;15592;53.656;7.276;2022-11-15T04:46:51;51.83;;;30.63;;
28335;SDS011;15592;53.656;7.276;2022-11-15T04:49:16;61.53;;;32.72;;
28335;SDS011;15592;53.656;7.276;2022-11-15T04:51:42;59.00;;;32.67;;
28335;SDS011;15592;53.656;7.276;2022-11-15T04:54:08;65.35;;;33.47;;
28335;SDS011;15592;53.656;7.276;2022-11-15T04:56:34;61.00;;;32.75;;
28335;SDS011;15592;53.656;7.276;2022-11-15T04:58:59;60.47;;;32.15;;
28335;SDS011;15592;53.656;7.276;2022-11-15T05:01:25;70.18;;;34.25;;
28335;SDS011;15592;53.656;7.276;2022-11-15T05:03:50;64.22;;;32.42;;
28335;SDS011;15592;53.656;7.276;2022-11-15T05:06:34;65.65;;;33.75;;
28335;SDS011;15592;53.656;7.276;2022-11-15T05:09:00;62.63;;;33.35;;
28335;SDS011;15592;53.656;7.276;2022-11-15T05:11:26;69.90;;;33.88;;
28335;SDS011;15592;53.656;7.276;2022-11-15T05:13:52;71.47;;;33.50;;
28335;SDS011;15592;53.656;7.276;2022-11-15T05:16:18;69.68;;;35.00;;
28335;SDS011;15592;53.656;7.276;2022-11-15T05:18:44;68.57;;;33.47;;
28335;SDS011;15592;53.656;7.276;2022-11-15T05:21:10;66.15;;;33.60;;
28335;SDS011;15592;53.656;7.276;2022-11-15T05:23:38;65.72;;;32.67;;
28335;SDS011;15592;53.656;7.276;2022-11-15T05:26:05;70.10;;;34.88;;
28335;SDS011;15592;53.656;7.276;2022-11-15T05:28:32;77.30;;;36.30;;
28335;SDS011;15592;53.656;7.276;2022-11-15T05:31:01;79.05;;;38.83;;
28335;SDS011;15592;53.656;7.276;2022-11-15T05:33:28;82.28;;;40.03;;
28335;SDS011;15592;53.656;7.276;2022-11-15T05:35:59;81.22;;;40.05;;
28335;SDS011;15592;53.656;7.276;2022-11-15T05:38:45;81.32;;;39.55;;
28335;SDS011;15592;53.656;7.276;2022-11-15T05:41:13;83.50;;;38.83;;
28335;SDS011;15592;53.656;7.276;2022-11-15T05:43:40;89.30;;;42.15;;
28335;SDS011;15592;53.656;7.276;2022-11-15T05:46:07;88.40;;;41.53;;
28335;SDS011;15592;53.656;7.276;2022-11-15T05:48:36;92.28;;;42.47;;
28335;SDS011;15592;53.656;7.276;2022-11-15T05:51:06;90.50;;;42.53;;
28335;SDS011;15592;53.656;7.276;2022-11-15T05:53:32;90.47;;;41.78;;
28335;SDS011;15592;53.656;7.276;2022-11-15T06:02:32;83.47;;;40.58;;
28335;SDS011;15592;53.656;7.276;2022-11-15T06:05:07;93.40;;;42.78;;
28335;SDS011;15592;53.656;7.276;2022-11-15T06:10:52;94.75;;;42.20;;
28335;SDS011;15592;53.656;7.276;2022-11-15T06:13:18;92.35;;;44.75;;
28335;SDS011;15592;53.656;7.276;2022-11-15T06:15:46;89.85;;;42.95;;
28335;SDS011;15592;53.656;7.276;2022-11-15T06:18:12;102.95;;;45.78;;
28335;SDS011;15592;53.656;7.276;2022-11-15T06:20:38;91.80;;;44.55;;
28335;SDS011;15592;53.656;7.276;2022-11-15T06:23:03;95.97;;;44.47;;
28335;SDS011;15592;53.656;7.276;2022-11-15T06:31:45;100.05;;;44.85;;
28335;SDS011;15592;53.656;7.276;2022-11-15T06:34:29;100.00;;;46.17;;
28335;SDS011;15592;53.656;7.276;2022-11-15T06:40:40;110.13;;;48.80;;
28335;SDS011;15592;53.656;7.276;2022-11-15T06:43:06;117.97;;;49.10;;
28335;SDS011;15592;53.656;7.276;2022-11-15T06:45:32;126.40;;;50.03;;
28335;SDS011;15592;53.656;7.276;2022-11-15T06:47:58;113.93;;;50.03;;
28335;SDS011;15592;53.656;7.276;2022-11-15T06:50:24;119.05;;;50.35;;
28335;SDS011;15592;53.656;7.276;2022-11-15T06:52:50;122.82;;;50.28;;
28335;SDS011;15592;53.656;7.276;2022-11-15T06:55:15;123.32;;;50.05;;
28335;SDS011;15592;53.656;7.276;2022-11-15T06:57:48;117.93;;;49.72;;
28335;SDS011;15592;53.656;7.276;2022-11-15T07:00:15;115.57;;;48.17;;
28335;SDS011;15592;53.656;7.276;2022-11-15T07:02:41;133.90;;;52.17;;
28335;SDS011;15592;53.656;7.276;2022-11-15T07:05:10;121.38;;;49.58;;
28335;SDS011;15592;53.656;7.276;2022-11-15T07:07:37;117.07;;;48.85;;
28335;SDS011;15592;53.656;7.276;2022-11-15T07:10:03;116.60;;;48.05;;
28335;SDS011;15592;53.656;7.276;2022-11-15T07:12:32;122.45;;;49.53;;
28335;SDS011;15592;53.656;7.276;2022-11-15T07:18:41;121.90;;;48.72;;
28335;SDS011;15592;53.656;7.276;2022-11-15T07:21:10;112.05;;;47.75;;
28335;SDS011;15592;53.656;7.276;2022-11-15T07:23:38;116.28;;;48.60;;
28335;SDS011;15592;53.656;7.276;2022-11-15T07:26:05;127.95;;;51.50;;
28335;SDS011;15592;53.656;7.276;2022-11-15T07:28:31;115.13;;;49.78;;
28335;SDS011;15592;53.656;7.276;2022-11-15T07:30:57;122.00;;;47.17;;
28335;SDS011;15592;53.656;7.276;2022-11-15T07:33:22;121.95;;;46.42;;
28335;SDS011;15592;53.656;7.276;2022-11-15T07:35:48;106.13;;;44.83;;
28335;SDS011;15592;53.656;7.276;2022-11-15T07:38:14;116.88;;;47.97;;
28335;SDS011;15592;53.656;7.276;2022-11-15T07:40:46;124.03;;;48.55;;
28335;SDS011;15592;53.656;7.276;2022-11-15T07:43:20;103.03;;;45.53;;
28335;SDS011;15592;53.656;7.276;2022-11-15T07:45:48;114.72;;;47.13;;
28335;SDS011;15592;53.656;7.276;2022-11-15T07:48:20;115.70;;;46.58;;
28335;SDS011;15592;53.656;7.276;2022-11-15T07:51:06;101.65;;;46.65;;
28335;SDS011;15592;53.656;7.276;2022-11-15T07:53:44;106.95;;;46.05;;
28335;SDS011;15592;53.656;7.276;2022-11-15T08:01:16;105.82;;;43.03;;
28335;SDS011;15592;53.656;7.276;2022-11-15T08:03:54;98.80;;;45.00;;
28335;SDS011;15592;53.656;7.276;2022-11-15T08:06:19;87.25;;;42.05;;
28335;SDS011;15592;53.656;7.276;2022-11-15T08:08:46;95.97;;;43.22;;
28335;SDS011;15592;53.656;7.276;2022-11-15T08:11:25;105.88;;;45.15;;
28335;SDS011;15592;53.656;7.276;2022-11-15T08:14:09;105.03;;;45.03;;
28335;SDS011;15592;53.656;7.276;2022-11-15T08:16:34;113.13;;;48.58;;
28335;SDS011;15592;53.656;7.276;2022-11-15T08:19:00;106.03;;;48.30;;
28335;SDS011;15592;53.656;7.276;2022-11-15T08:21:26;102.18;;;46.75;;
28335;SDS011;15592;53.656;7.276;2022-11-15T08:24:27;107.25;;;46.83;;
28335;SDS011;15592;53.656;7.276;2022-11-15T08:26:52;102.78;;;47.00;;
28335;SDS011;15592;53.656;7.276;2022-11-15T08:29:24;111.82;;;47.50;;
28335;SDS011;15592;53.656;7.276;2022-11-15T08:32:01;110.90;;;49.33;;
28335;SDS011;15592;53.656;7.276;2022-11-15T08:34:27;117.25;;;50.33;;
28335;SDS011;15592;53.656;7.276;2022-11-15T08:36:53;112.00;;;49.30;;
28335;SDS011;15592;53.656;7.276;2022-11-15T08:39:18;113.82;;;47.63;;
28335;SDS011;15592;53.656;7.276;2022-11-15T08:41:44;116.35;;;50.13;;
28335;SDS011;15592;53.656;7.276;2022-11-15T08:44:10;107.75;;;46.92;;
28335;SDS011;15592;53.656;7.276;2022-11-15T08:46:35;99.88;;;46.38;;
28335;SDS011;15592;53.656;7.276;2022-11-15T08:49:01;108.80;;;46.80;;
28335;SDS011;15592;53.656;7.276;2022-11-15T08:51:26;112.15;;;48.65;;
28335;SDS011;15592;53.656;7.276;2022-11-15T08:53:52;102.40;;;45.67;;
28335;SDS011;15592;53.656;7.276;2022-11-15T08:56:17;101.07;;;46.17;;
28335;SDS011;15592;53.656;7.276;2022-11-15T08:58:43;100.28;;;43.72;;
28335;SDS011;15592;53.656;7.276;2022-11-15T09:01:14;104.25;;;45.90;;
28335;SDS011;15592;53.656;7.276;2022-11-15T09:03:41;93.60;;;43.63;;
28335;SDS011;15592;53.656;7.276;2022-11-15T09:06:07;88.70;;;42.05;;
28335;SDS011;15592;53.656;7.276;2022-11-15T09:08:34;92.28;;;42.13;;
28335;SDS011;15592;53.656;7.276;2022-11-15T09:11:02;88.28;;;42.90;;
28335;SDS011;15592;53.656;7.276;2022-11-15T09:13:29;90.05;;;43.00;;
28335;SDS011;15592;53.656;7.276;2022-11-15T09:15:58;86.18;;;42.05;;
28335;SDS011;15592;53.656;7.276;2022-11-15T09:18:25;91.65;;;44.30;;
28335;SDS011;15592;53.656;7.276;2022-11-15T09:20:54;90.80;;;42.88;;
28335;SDS011;15592;53.656;7.276;2022-11-15T09:23:24;84.20;;;41.33;;
28335;SDS011;15592;53.656;7.276;2022-11-15T09:25:51;78.28;;;40.78;;
28335;SDS011;15592;53.656;7.276;2022-11-15T09:28:17;88.65;;;41.25;;
28335;SDS011;15592;53.656;7.276;2022-11-15T09:30:43;79.15;;;39.97;;
28335;SDS011;15592;53.656;7.276;2022-11-15T09:33:09;79.50;;;40.95;;
28335;SDS011;15592;53.656;7.276;2022-11-15T09:35:36;81.88;;;42.47;;
28335;SDS011;15592;53.656;7.276;2022-11-15T09:38:02;83.00;;;41.10;;
28335;SDS011;15592;53.656;7.276;2022-11-15T09:40:29;78.93;;;38.83;;
28335;SDS011;15592;53.656;7.276;2022-11-15T09:51:27;71.53;;;38.47;;
28335;SDS011;15592;53.656;7.276;2022-11-15T09:57:18;66.22;;;36.70;;
28335;SDS011;15592;53.656;7.276;2022-11-15T10:00:21;73.38;;;38.75;;
28335;SDS011;15592;53.656;7.276;2022-11-15T10:05:59;62.90;;;34.95;;
28335;SDS011;15592;53.656;7.276;2022-11-15T10:08:46;58.80;;;32.97;;
28335;SDS011;15592;53.656;7.276;2022-11-15T10:11:24;60.50;;;34.22;;
28335;SDS011;15592;53.656;7.276;2022-11-15T10:13:53;54.08;;;30.67;;
28335;SDS011;15592;53.656;7.276;2022-11-15T10:27:28;55.90;;;32.75;;
28335;SDS011;15592;53.656;7.276;2022-11-15T10:29:54;54.50;;;31.67;;
28335;SDS011;15592;53.656;7.276;2022-11-15T10:32:20;54.03;;;29.67;;
28335;SDS011;15592;53.656;7.276;2022-11-15T10:34:47;50.25;;;30.88;;
28335;SDS011;15592;53.656;7.276;2022-11-15T10:37:14;52.22;;;30.38;;
28335;SDS011;15592;53.656;7.276;2022-11-15T10:40:05;53.20;;;32.25;;
28335;SDS011;15592;53.656;7.276;2022-11-15T10:42:39;47.90;;;30.27;;
28335;SDS011;15592;53.656;7.276;2022-11-15T10:45:22;52.47;;;30.35;;
28335;SDS011;15592;53.656;7.276;2022-11-15T10:47:49;48.78;;;28.80;;
28335;SDS011;15592;53.656;7.276;2022-11-15T10:50:28;54.72;;;32.00;;
28335;SDS011;15592;53.656;7.276;2022-11-15T10:52:56;45.88;;;28.33;;
28335;SDS011;15592;53.656;7.276;2022-11-15T10:55:24;51.80;;;28.02;;
28335;SDS011;15592;53.656;7.276;2022-11-15T11:00:47;46.47;;;27.80;;
28335;SDS011;15592;53.656;7.276;2022-11-15T11:06:24;43.10;;;27.23;;
28335;SDS011;15592;53.656;7.276;2022-11-15T11:08:54;44.08;;;27.05;;
28335;SDS011;15592;53.656;7.276;2022-11-15T11:11:23;45.10;;;25.65;;
28335;SDS011;15592;53.656;7.276;2022-11-15T11:13:49;39.80;;;26.40;;
28335;SDS011;15592;53.656;7.276;2022-11-15T11:16:36;42.95;;;25.80;;
28335;SDS011;15592;53.656;7.276;2022-11-15T11:22:10;43.10;;;27.33;;
28335;SDS011;15592;53.656;7.276;2022-11-15T11:24:45;41.55;;;26.00;;
28335;SDS011;15592;53.656;7.276;2022-11-15T11:33:16;41.40;;;28.10;;
28335;SDS011;15592;53.656;7.276;2022-11-15T11:41:27;37.95;;;24.75;;
28335;SDS011;15592;53.656;7.276;2022-11-15T11:57:12;38.35;;;24.98;;
28335;SDS011;15592;53.656;7.276;2022-11-15T12:02:39;34.17;;;22.77;;
28335;SDS011;15592;53.656;7.276;2022-11-15T12:07:59;32.80;;;22.65;;
28335;SDS011;15592;53.656;7.276;2022-11-15T12:14:01;36.13;;;25.23;;
28335;SDS011;15592;53.656;7.276;2022-11-15T12:16:30;37.90;;;25.15;;
28335;SDS011;15592;53.656;7.276;2022-11-15T12:19:03;37.22;;;25.73;;
28335;SDS011;15592;53.656;7.276;2022-11-15T12:24:43;37.78;;;26.30;;
28335;SDS011;15592;53.656;7.276;2022-11-15T12:27:48;39.33;;;27.90;;
28335;SDS011;15592;53.656;7.276;2022-11-15T12:30:19;38.40;;;26.10;;
28335;SDS011;15592;53.656;7.276;2022-11-15T12:33:00;39.28;;;28.10;;
28335;SDS011;15592;53.656;7.276;2022-11-15T12:35:36;42.88;;;29.38;;
28335;SDS011;15592;53.656;7.276;2022-11-15T12:38:11;42.92;;;30.52;;
28335;SDS011;15592;53.656;7.276;2022-11-15T12:47:24;42.65;;;30.77;;
28335;SDS011;15592;53.656;7.276;2022-11-15T12:49:51;42.58;;;31.73;;
28335;SDS011;15592;53.656;7.276;2022-11-15T12:52:17;43.40;;;31.17;;
28335;SDS011;15592;53.656;7.276;2022-11-15T12:58:27;41.00;;;28.10;;
28335;SDS011;15592;53.656;7.276;2022-11-15T13:01:06;40.83;;;29.80;;
28335;SDS011;15592;53.656;7.276;2022-11-15T13:03:32;39.55;;;28.05;;
28335;SDS011;15592;53.656;7.276;2022-11-15T13:05:59;39.78;;;29.98;;
28335;SDS011;15592;53.656;7.276;2022-11-15T13:27:21;35.53;;;26.13;;
28335;SDS011;15592;53.656;7.276;2022-11-15T13:29:47;38.10;;;27.63;;
28335;SDS011;15592;53.656;7.276;2022-11-15T13:32:13;35.47;;;26.80;;
28335;SDS011;15592;53.656;7.276;2022-11-15T13:34:47;33.25;;;25.40;;
28335;SDS011;15592;53.656;7.276;2022-11-15T13:39:46;35.08;;;25.90;;
28335;SDS011;15592;53.656;7.276;2022-11-15T13:42:19;36.25;;;25.85;;
28335;SDS011;15592;53.656;7.276;2022-11-15T13:44:58;32.22;;;24.75;;
28335;SDS011;15592;53.656;7.276;2022-11-15T13:47:55;33.30;;;23.65;;
28335;SDS011;15592;53.656;7.276;2022-11-15T13:50:27;29.35;;;23.85;;
28335;SDS011;15592;53.656;7.276;2022-11-15T13:55:54;34.47;;;24.92;;
28335;SDS011;15592;53.656;7.276;2022-11-15T13:58:28;33.00;;;24.65;;
28335;SDS011;15592;53.656;7.276;2022-11-15T14:04:27;31.83;;;24.83;;
28335;SDS011;15592;53.656;7.276;2022-11-15T14:06:56;34.67;;;26.25;;
28335;SDS011;15592;53.656;7.276;2022-11-15T14:13:26;30.63;;;23.42;;
28335;SDS011;15592;53.656;7.276;2022-11-15T14:16:18;31.13;;;23.20;;
28335;SDS011;15592;53.656;7.276;2022-11-15T14:27:34;35.55;;;24.63;;
28335;SDS011;15592;53.656;7.276;2022-11-15T14:30:00;30.45;;;23.33;;
28335;SDS011;15592;53.656;7.276;2022-11-15T14:32:30;32.38;;;24.35;;
28335;SDS011;15592;53.656;7.276;2022-11-15T14:35:11;31.77;;;23.02;;
28335;SDS011;15592;53.656;7.276;2022-11-15T14:37:41;29.63;;;21.92;;
28335;SDS011;15592;53.656;7.276;2022-11-15T14:40:08;32.88;;;23.83;;
28335;SDS011;15592;53.656;7.276;2022-11-15T14:42:37;27.33;;;21.65;;
28335;SDS011;15592;53.656;7.276;2022-11-15T14:45:04;26.77;;;21.42;;
28335;SDS011;15592;53.656;7.276;2022-11-15T14:47:37;25.58;;;20.23;;
28335;SDS011;15592;53.656;7.276;2022-11-15T14:50:03;27.95;;;20.55;;
28335;SDS011;15592;53.656;7.276;2022-11-15T14:52:30;29.05;;;21.27;;
28335;SDS011;15592;53.656;7.276;2022-11-15T14:57:27;25.42;;;17.38;;
28335;SDS011;15592;53.656;7.276;2022-11-15T14:59:53;19.55;;;15.35;;
28335;SDS011;15592;53.656;7.276;2022-11-15T15:02:22;18.85;;;13.50;;
28335;SDS011;15592;53.656;7.276;2022-11-15T15:04:50;14.73;;;11.50;;
28335;SDS011;15592;53.656;7.276;2022-11-15T15:07:16;13.95;;;10.32;;
28335;SDS011;15592;53.656;7.276;2022-11-15T15:09:42;12.20;;;9.80;;
28335;SDS011;15592;53.656;7.276;2022-11-15T15:12:15;9.88;;;8.25;;
28335;SDS011;15592;53.656;7.276;2022-11-15T15:14:46;10.75;;;8.38;;
28335;SDS011;15592;53.656;7.276;2022-11-15T15:17:12;11.52;;;8.77;;
28335;SDS011;15592;53.656;7.276;2022-11-15T15:19:38;9.43;;;7.90;;
28335;SDS011;15592;53.656;7.276;2022-11-15T15:22:04;11.13;;;8.75;;
28335;SDS011;15592;53.656;7.276;2022-11-15T15:24:31;8.98;;;7.75;;
28335;SDS011;15592;53.656;7.276;2022-11-15T15:26:56;9.60;;;8.10;;
28335;SDS011;15592;53.656;7.276;2022-11-15T15:29:22;9.38;;;7.70;;
28335;SDS011;15592;53.656;7.276;2022-11-15T15:31:48;9.75;;;7.75;;
28335;SDS011;15592;53.656;7.276;2022-11-15T15:34:13;9.55;;;7.80;;
28335;SDS011;15592;53.656;7.276;2022-11-15T15:36:39;9.45;;;7.55;;
28335;SDS011;15592;53.656;7.276;2022-11-15T15:39:04;10.13;;;7.35;;
28335;SDS011;15592;53.656;7.276;2022-11-15T15:41:37;9.18;;;7.20;;
28335;SDS011;15592;53.656;7.276;2022-11-15T15:44:02;7.82;;;6.43;;
28335;SDS011;15592;53.656;7.276;2022-11-15T15:46:28;10.32;;;7.32;;
28335;SDS011;15592;53.656;7.276;2022-11-15T15:48:58;9.05;;;7.10;;
28335;SDS011;15592;53.656;7.276;2022-11-15T15:51:26;8.52;;;6.90;;
28335;SDS011;15592;53.656;7.276;2022-11-15T15:53:52;12.20;;;7.85;;
28335;SDS011;15592;53.656;7.276;2022-11-15T15:56:21;9.85;;;8.00;;
28335;SDS011;15592;53.656;7.276;2022-11-15T15:58:47;9.05;;;7.40;;
28335;SDS011;15592;53.656;7.276;2022-11-15T16:01:13;9.77;;;7.47;;
28335;SDS011;15592;53.656;7.276;2022-11-15T16:03:38;11.25;;;7.65;;
28335;SDS011;15592;53.656;7.276;2022-11-15T16:06:04;10.25;;;8.38;;
28335;SDS011;15592;53.656;7.276;2022-11-15T16:08:30;9.48;;;7.60;;
28335;SDS011;15592;53.656;7.276;2022-11-15T16:10:55;10.75;;;8.15;;
28335;SDS011;15592;53.656;7.276;2022-11-15T16:13:21;12.95;;;8.45;;
28335;SDS011;15592;53.656;7.276;2022-11-15T16:15:48;11.50;;;9.07;;
28335;SDS011;15592;53.656;7.276;2022-11-15T16:18:17;11.77;;;9.45;;
28335;SDS011;15592;53.656;7.276;2022-11-15T16:20:44;12.20;;;10.02;;
28335;SDS011;15592;53.656;7.276;2022-11-15T16:23:14;12.50;;;9.90;;
28335;SDS011;15592;53.656;7.276;2022-11-15T16:25:47;13.40;;;10.38;;
28335;SDS011;15592;53.656;7.276;2022-11-15T16:28:27;15.50;;;11.45;;
28335;SDS011;15592;53.656;7.276;2022-11-15T16:31:02;12.93;;;10.85;;
28335;SDS011;15592;53.656;7.276;2022-11-15T16:33:33;15.43;;;12.40;;
28335;SDS011;15592;53.656;7.276;2022-11-15T16:35:58;13.73;;;11.65;;
28335;SDS011;15592;53.656;7.276;2022-11-15T16:38:24;15.15;;;11.65;;
28335;SDS011;15592;53.656;7.276;2022-11-15T16:40:49;14.90;;;12.63;;
28335;SDS011;15592;53.656;7.276;2022-11-15T16:43:15;16.77;;;12.77;;
28335;SDS011;15592;53.656;7.276;2022-11-15T16:45:41;15.63;;;13.05;;
28335;SDS011;15592;53.656;7.276;2022-11-15T16:48:07;16.20;;;13.10;;
28335;SDS011;15592;53.656;7.276;2022-11-15T16:50:47;17.17;;;13.85;;
28335;SDS011;15592;53.656;7.276;2022-11-15T16:53:13;18.95;;;14.80;;
28335;SDS011;15592;53.656;7.276;2022-11-15T16:55:39;17.35;;;14.43;;
28335;SDS011;15592;53.656;7.276;2022-11-15T16:58:04;18.02;;;15.15;;
28335;SDS011;15592;53.656;7.276;2022-11-15T17:00:30;17.52;;;14.70;;
28335;SDS011;15592;53.656;7.276;2022-11-15T17:02:56;15.63;;;13.40;;
28335;SDS011;15592;53.656;7.276;2022-11-15T17:05:22;18.75;;;14.27;;
28335;SDS011;15592;53.656;7.276;2022-11-15T17:07:49;15.82;;;13.32;;
28335;SDS011;15592;53.656;7.276;2022-11-15T17:10:19;17.45;;;14.10;;
28335;SDS011;15592;53.656;7.276;2022-11-15T17:12:50;15.85;;;13.05;;
28335;SDS011;15592;53.656;7.276;2022-11-15T17:15:16;16.60;;;13.70;;
28335;SDS011;15592;53.656;7.276;2022-11-15T17:17:42;14.68;;;13.02;;
28335;SDS011;15592;53.656;7.276;2022-11-15T17:20:15;15.75;;;13.15;;
28335;SDS011;15592;53.656;7.276;2022-11-15T17:22:42;14.75;;;12.13;;
28335;SDS011;15592;53.656;7.276;2022-11-15T17:25:08;14.63;;;12.13;;
28335;SDS011;15592;53.656;7.276;2022-11-15T17:27:34;12.35;;;11.07;;
28335;SDS011;15592;53.656;7.276;2022-11-15T17:29:59;13.70;;;12.13;;
28335;SDS011;15592;53.656;7.276;2022-11-15T17:32:25;15.18;;;11.73;;
28335;SDS011;15592;53.656;7.276;2022-11-15T17:34:51;12.75;;;10.77;;
28335;SDS011;15592;53.656;7.276;2022-11-15T17:37:16;12.88;;;10.55;;
28335;SDS011;15592;53.656;7.276;2022-11-15T17:39:42;12.57;;;11.05;;
28335;SDS011;15592;53.656;7.276;2022-11-15T17:42:08;12.48;;;10.68;;